Time;durP1;ratioP1;P1;durP2;ratioP2;P2;SDS_P1;SDS_P2;PMS_P1;PMS_P2;Temp;Humidity;BMP_temperature;BMP_pressure;BME280_temperature;BME280_humidity;BME280_pressure;Samples;Min_cycle;Max_cycle;Signal;HPM_P1;HPM_P2
2022/12/24 00:01:42;;;;;;;;;21.25;13.75;;;;;13.13;67.90;100839.50;5062048;28;46097;-56
2022/12/24 00:04:08;;;;;;;;;17.00;15.00;;;;;13.14;68.05;100831.59;5062139;28;45161;-57
2022/12/24 00:06:33;;;;;;;;;9.50;5.75;;;;;13.12;68.26;100838.66;5062374;28;45405;-56
2022/12/24 00:08:58;;;;;;;;;24.25;21.25;;;;;13.12;68.08;100843.06;5062080;28;45398;-57
2022/12/24 00:11:24;;;;;;;;;9.75;7.25;;;;;13.11;67.97;100838.69;5062047;28;45534;-57
2022/12/24 00:13:49;;;;;;;;;11.00;10.00;;;;;13.09;68.31;100851.03;5062258;28;45360;-57
2022/12/24 00:16:15;;;;;;;;;12.50;8.50;;;;;13.10;68.32;100839.59;5062215;28;46338;-57
2022/12/24 00:18:40;;;;;;;;;9.50;8.00;;;;;13.05;68.14;100842.31;5062108;28;45467;-57
2022/12/24 00:21:06;;;;;;;;;14.75;10.25;;;;;13.06;68.17;100830.88;5061739;28;46281;-57
2022/12/24 00:23:31;;;;;;;;;14.00;9.00;;;;;13.06;67.91;100828.25;5061825;27;45343;-57
2022/12/24 00:25:56;;;;;;;;;11.50;7.00;;;;;13.02;67.98;100837.13;5061925;28;45327;-57
2022/12/24 00:28:22;;;;;;;;;11.00;7.50;;;;;13.03;68.45;100843.25;5062240;28;45669;-57
2022/12/24 00:30:47;;;;;;;;;12.25;6.00;;;;;12.98;68.07;100841.59;5077621;28;48551;-57
2022/12/24 00:33:13;;;;;;;;;19.75;13.00;;;;;13.03;68.00;100849.44;5061841;28;45454;-57
2022/12/24 00:35:39;;;;;;;;;13.25;8.25;;;;;13.02;68.24;100847.69;5061984;28;45514;-56
2022/12/24 00:38:05;;;;;;;;;11.75;10.00;;;;;13.00;68.50;100837.19;5077504;28;45284;-57
2022/12/24 00:40:32;;;;;;;;;14.75;10.50;;;;;12.99;68.21;100842.47;5061679;28;45315;-57
2022/12/24 00:42:57;;;;;;;;;14.25;9.25;;;;;13.00;68.26;100852.13;5077163;28;45455;-56
2022/12/24 00:45:23;;;;;;;;;14.00;9.25;;;;;12.98;68.06;100856.53;5061764;28;45137;-57
2022/12/24 00:47:48;;;;;;;;;14.00;9.25;;;;;12.98;68.02;100860.06;5061696;28;45485;-55
2022/12/24 00:50:14;;;;;;;;;8.00;8.00;;;;;12.98;68.27;100870.63;5061682;28;45223;-57
2022/12/24 00:52:39;;;;;;;;;14.50;8.00;;;;;12.91;68.01;100869.00;5061147;28;45439;-57
2022/12/24 00:55:05;;;;;;;;;10.50;8.00;;;;;12.92;68.39;100873.41;5061690;28;45313;-55
2022/12/24 00:57:31;;;;;;;;;9.00;7.25;;;;;12.93;68.27;100883.06;5061557;28;45302;-56
2022/12/24 00:59:56;;;;;;;;;14.25;10.75;;;;;12.93;68.38;100861.94;5061153;28;46670;-56
2022/12/24 01:02:22;;;;;;;;;8.25;6.25;;;;;12.94;68.16;100868.97;5061490;28;45391;-56
2022/12/24 01:07:31;;;;;;;;;9.00;7.00;;;;;12.92;68.09;100891.84;5061288;28;45505;-56
2022/12/24 01:09:56;;;;;;;;;6.50;5.50;;;;;12.91;68.09;100891.91;5061010;28;45929;-56
2022/12/24 01:12:22;;;;;;;;;11.50;7.50;;;;;12.90;68.11;100891.00;5061188;28;45336;-56
2022/12/24 01:14:47;;;;;;;;;13.00;10.00;;;;;12.89;68.32;100886.63;5061220;28;45248;-56
2022/12/24 01:17:13;;;;;;;;;11.25;8.25;;;;;12.89;68.04;100876.09;5060513;28;45353;-56
2022/12/24 01:19:38;;;;;;;;;8.00;5.50;;;;;12.86;68.36;100865.63;5060952;28;45930;-56
2022/12/24 01:22:03;;;;;;;;;10.00;7.25;;;;;12.83;68.41;100873.59;5060774;28;45358;-56
2022/12/24 01:24:29;;;;;;;;;9.75;6.25;;;;;12.84;68.15;100870.94;5061161;27;45324;-56
2022/12/24 01:26:54;;;;;;;;;11.50;8.00;;;;;12.83;68.24;100866.56;5060939;28;45208;-56
2022/12/24 01:29:19;;;;;;;;;12.25;9.50;;;;;12.81;68.18;100849.88;5060844;28;46129;-57
2022/12/24 01:31:45;;;;;;;;;9.25;6.50;;;;;12.84;68.10;100867.41;5061069;28;45233;-56
2022/12/24 01:34:10;;;;;;;;;12.75;7.75;;;;;12.83;68.47;100879.75;5061064;28;45232;-56
2022/12/24 01:36:36;;;;;;;;;16.75;5.25;;;;;12.81;68.51;100881.53;5060850;28;45207;-56
2022/12/24 01:39:01;;;;;;;;;10.75;6.75;;;;;12.81;68.37;100889.44;5060544;28;45889;-57
2022/12/24 01:44:27;;;;;;;;;9.25;8.75;;;;;12.79;68.08;100899.16;5060944;28;45546;-56
2022/12/24 01:47:00;;;;;;;;;11.50;8.50;;;;;12.78;68.12;100878.09;5060486;28;45324;-57
2022/12/24 01:49:25;;;;;;;;;14.25;9.00;;;;;12.79;68.55;100893.00;5060584;28;46090;-57
2022/12/24 01:51:56;;;;;;;;;11.50;6.00;;;;;12.78;68.21;100897.44;5060294;28;45429;-56
2022/12/24 01:54:30;;;;;;;;;10.00;6.75;;;;;12.76;68.34;100893.94;5060865;28;45286;-57
2022/12/24 01:57:15;;;;;;;;;11.50;8.25;;;;;12.73;68.25;100901.94;5060302;28;45546;-57
2022/12/24 01:59:44;;;;;;;;;13.00;7.00;;;;;12.70;68.64;100898.47;5060398;28;45463;-56
2022/12/24 02:02:10;;;;;;;;;14.50;8.00;;;;;12.71;68.32;100906.34;5060383;28;45344;-56
2022/12/24 02:04:48;;;;;;;;;12.00;7.00;;;;;12.72;68.52;100912.53;5060570;28;45420;-58
2022/12/24 02:07:13;;;;;;;;;12.50;7.50;;;;;12.73;68.21;100920.38;5060309;28;45318;-56
2022/12/24 02:09:39;;;;;;;;;9.75;6.00;;;;;12.75;68.16;100909.81;5060197;28;45432;-56
2022/12/24 02:12:05;;;;;;;;;15.00;7.50;;;;;12.75;68.52;100920.34;5060290;28;45248;-57
2022/12/24 02:14:31;;;;;;;;;12.00;6.00;;;;;12.74;68.39;100926.53;5076063;28;45275;-57
2022/12/24 02:17:20;;;;;;;;;11.25;5.75;;;;;12.76;68.29;100919.47;5060254;28;45446;-56
2022/12/24 02:20:06;;;;;;;;;11.75;6.25;;;;;12.75;68.62;100920.34;5060173;28;45332;-56
2022/12/24 02:22:32;;;;;;;;;10.25;4.50;;;;;12.75;68.62;100930.91;5059752;28;45462;-55
2022/12/24 02:25:29;;;;;;;;;11.25;7.75;;;;;12.72;68.34;100915.16;5060270;28;45421;-56
2022/12/24 02:28:10;;;;;;;;;11.00;5.50;;;;;12.69;68.64;100913.41;5059909;28;45308;-56
2022/12/24 02:30:49;;;;;;;;;8.50;7.25;;;;;12.70;68.70;100922.22;5059856;27;45276;-56
2022/12/24 02:33:24;;;;;;;;;19.50;16.50;;;;;12.70;68.94;100916.94;5060059;28;45298;-56
2022/12/24 02:36:02;;;;;;;;;12.00;7.50;;;;;12.70;68.38;100924.84;5060043;28;45285;-57
2022/12/24 02:38:27;;;;;;;;;11.25;8.25;;;;;12.65;68.53;100912.63;5059703;28;45539;-56
2022/12/24 02:40:59;;;;;;;;;11.00;5.25;;;;;12.65;68.81;100906.47;5059654;28;46221;-56
2022/12/24 02:43:32;;;;;;;;;10.25;7.00;;;;;12.63;68.54;100903.88;5059862;28;45381;-57
2022/12/24 02:46:01;;;;;;;;;12.50;8.75;;;;;12.59;68.74;100896.06;5075831;28;45261;-56
2022/12/24 02:48:29;;;;;;;;;11.25;7.25;;;;;12.57;68.71;100903.16;5059849;28;45403;-56
2022/12/24 02:51:12;;;;;;;;;7.25;4.25;;;;;12.58;68.80;100905.75;5059676;28;45394;-57
2022/12/24 02:53:38;;;;;;;;;14.50;6.00;;;;;12.58;68.73;100905.75;5059267;28;45291;-56
2022/12/24 02:56:19;;;;;;;;;11.50;6.75;;;;;12.58;68.80;100918.94;5059793;28;45246;-56
2022/12/24 02:59:04;;;;;;;;;11.00;6.75;;;;;12.56;68.76;100922.50;5075234;28;45198;-57
2022/12/24 03:01:44;;;;;;;;;8.50;7.75;;;;;12.52;69.06;100921.69;5059262;28;47278;-56
2022/12/24 03:04:18;;;;;;;;;12.00;7.50;;;;;12.52;68.81;100919.03;5059597;28;45359;-56
2022/12/24 03:06:50;;;;;;;;;12.00;5.75;;;;;12.53;68.71;100912.88;5075321;28;45306;-57
2022/12/24 03:09:29;;;;;;;;;10.50;6.25;;;;;12.52;68.75;100908.50;5059356;28;45431;-56
2022/12/24 03:12:05;;;;;;;;;8.75;5.25;;;;;12.52;68.90;100905.88;5059416;28;45476;-56
2022/12/24 03:14:33;;;;;;;;;12.75;8.00;;;;;12.54;68.74;100903.19;5059451;28;45520;-57
2022/12/24 03:17:01;;;;;;;;;10.50;9.25;;;;;12.54;69.17;100905.81;5059733;28;45324;-56
2022/12/24 03:19:27;;;;;;;;;6.75;5.25;;;;;12.55;68.90;100904.94;5059402;28;45236;-56
2022/12/24 03:21:57;;;;;;;;;11.00;5.50;;;;;12.49;69.01;100901.53;5059007;28;45441;-56
2022/12/24 03:24:23;;;;;;;;;15.00;7.50;;;;;12.52;68.89;100904.09;5059203;28;45314;-56
2022/12/24 03:26:49;;;;;;;;;12.00;6.00;;;;;12.52;69.09;100892.69;5059239;28;45518;-57
2022/12/24 03:29:15;;;;;;;;;15.00;8.50;;;;;12.51;69.39;100893.56;5059486;28;45595;-57
2022/12/24 03:31:50;;;;;;;;;12.75;8.00;;;;;12.54;69.15;100879.47;5059173;28;46292;-57
2022/12/24 03:34:17;;;;;;;;;8.50;7.50;;;;;12.51;68.95;100881.28;5059206;28;45267;-57
2022/12/24 03:36:42;;;;;;;;;10.00;8.75;;;;;12.53;69.12;100894.44;5075026;28;45347;-56
2022/12/24 03:39:09;;;;;;;;;14.75;6.75;;;;;12.51;68.93;100889.19;5059429;28;45272;-57
2022/12/24 03:41:35;;;;;;;;;14.00;7.25;;;;;12.51;69.09;100885.66;5062450;28;46826;-56
2022/12/24 03:44:00;;;;;;;;;10.75;5.75;;;;;12.55;69.14;100902.28;5062615;28;45337;-57
2022/12/24 03:46:26;;;;;;;;;8.75;5.25;;;;;12.54;69.11;100895.28;5062803;28;45364;-57
2022/12/24 03:48:51;;;;;;;;;9.50;6.25;;;;;12.57;69.31;100903.16;5062493;28;45319;-57
2022/12/24 03:51:19;;;;;;;;;12.75;6.50;;;;;12.55;69.10;100908.41;5062345;28;45383;-57
2022/12/24 03:53:44;;;;;;;;;9.00;5.50;;;;;12.55;69.40;100916.34;5062040;28;45306;-56
2022/12/24 03:56:10;;;;;;;;;7.75;4.00;;;;;12.57;69.20;100917.19;5062498;28;45245;-56
2022/12/24 03:58:35;;;;;;;;;10.50;7.25;;;;;12.58;69.06;100915.41;5062289;28;45497;-56
2022/12/24 04:01:00;;;;;;;;;13.50;8.25;;;;;12.56;69.12;100918.06;5062311;28;45203;-56
2022/12/24 04:03:26;;;;;;;;;12.25;8.00;;;;;12.56;69.13;100922.50;5062309;28;45231;-57
2022/12/24 04:06:05;;;;;;;;;12.00;7.50;;;;;12.54;69.17;100919.88;5062615;28;45268;-56
2022/12/24 04:08:30;;;;;;;;;10.50;6.25;;;;;12.56;69.22;100927.75;5062195;28;45547;-57
2022/12/24 04:10:55;;;;;;;;;12.25;8.00;;;;;12.50;69.18;100929.63;5062121;28;45347;-56
2022/12/24 04:13:21;;;;;;;;;7.00;5.50;;;;;12.52;69.29;100922.53;5062129;28;45351;-56
2022/12/24 04:15:59;;;;;;;;;13.25;7.25;;;;;12.50;69.01;100937.53;5062430;28;45318;-57
2022/12/24 04:18:25;;;;;;;;;11.25;6.25;;;;;12.46;69.40;100934.97;5062504;28;45172;-56
2022/12/24 04:20:50;;;;;;;;;13.25;9.25;;;;;12.49;69.33;100932.25;5061773;28;46170;-56
2022/12/24 04:23:15;;;;;;;;;7.50;7.50;;;;;12.43;69.41;100933.25;5061949;28;45211;-56
2022/12/24 04:25:41;;;;;;;;;12.50;11.00;;;;;12.45;69.63;100938.50;5062049;28;45316;-57
2022/12/24 04:28:06;;;;;;;;;5.75;4.50;;;;;12.43;69.30;100933.25;5061963;28;45335;-56
2022/12/24 04:30:31;;;;;;;;;14.50;8.00;;;;;12.45;69.55;100943.78;5061804;28;45433;-57
2022/12/24 04:32:57;;;;;;;;;12.50;9.00;;;;;12.41;69.61;100948.22;5062041;28;45420;-56
2022/12/24 04:35:22;;;;;;;;;11.00;5.75;;;;;12.45;69.68;100946.41;5062037;28;45158;-56
2022/12/24 04:37:47;;;;;;;;;9.00;6.75;;;;;12.41;69.36;100942.09;5061823;28;45248;-56
2022/12/24 04:40:13;;;;;;;;;10.00;6.00;;;;;12.38;69.35;100956.19;5061588;28;46241;-56
2022/12/24 04:42:38;;;;;;;;;8.00;5.25;;;;;12.40;69.40;100961.44;5061742;28;45250;-57
2022/12/24 04:45:04;;;;;;;;;9.50;8.00;;;;;12.34;69.89;100955.38;5061867;28;45232;-56
2022/12/24 04:47:29;;;;;;;;;11.25;6.75;;;;;12.38;69.47;100961.47;5061850;28;45457;-56
2022/12/24 04:49:55;;;;;;;;;13.75;7.25;;;;;12.39;69.74;100973.75;5061436;28;46046;-57
2022/12/24 04:52:20;;;;;;;;;11.25;5.00;;;;;12.38;69.45;100977.28;5060008;28;45474;-56
2022/12/24 04:54:45;;;;;;;;;17.25;10.75;;;;;12.35;69.63;100972.94;5061568;28;45392;-56
2022/12/24 04:57:11;;;;;;;;;12.50;8.00;;;;;12.39;69.71;100972.88;5061657;28;45378;-57
2022/12/24 04:59:36;;;;;;;;;12.25;9.00;;;;;12.37;69.38;100972.06;5061558;28;46281;-56
2022/12/24 05:02:02;;;;;;;;;20.25;14.25;;;;;12.35;69.74;100978.22;5076916;28;45343;-57
2022/12/24 05:04:27;;;;;;;;;15.25;10.25;;;;;12.33;70.06;100969.44;5061670;28;45338;-56
2022/12/24 05:06:52;;;;;;;;;14.75;10.50;;;;;12.35;69.55;100969.41;5076805;28;45214;-56
2022/12/24 05:09:18;;;;;;;;;15.25;11.00;;;;;12.33;69.70;100979.13;5061239;28;46176;-56
2022/12/24 05:11:43;;;;;;;;;19.25;15.00;;;;;12.32;69.99;100980.03;5060953;28;45386;-56
2022/12/24 05:14:08;;;;;;;;;16.50;16.25;;;;;12.35;70.16;100967.66;5061556;28;45270;-57
2022/12/24 05:16:34;;;;;;;;;20.75;14.00;;;;;12.30;69.91;100969.53;5061043;28;45314;-57
2022/12/24 05:18:59;;;;;;;;;25.00;17.25;;;;;12.29;70.03;100970.41;5061226;28;46400;-56
2022/12/24 05:21:25;;;;;;;;;13.00;10.50;;;;;12.26;70.03;100962.53;5060860;28;45285;-57
2022/12/24 05:27:01;;;;;;;;;15.25;12.75;;;;;12.35;69.86;100969.41;5049437;28;45445;-56
2022/12/24 05:29:26;;;;;;;;;12.50;9.50;;;;;12.36;69.79;100963.25;5056461;28;46116;-56
2022/12/24 05:31:52;;;;;;;;;13.00;10.00;;;;;12.37;69.74;100970.28;5060807;28;45386;-57
2022/12/24 05:34:17;;;;;;;;;12.25;8.75;;;;;12.36;69.95;100965.88;5061091;28;45412;-56
2022/12/24 05:36:43;;;;;;;;;11.25;6.25;;;;;12.39;70.07;100957.94;5060953;28;45327;-56
2022/12/24 05:39:15;;;;;;;;;21.00;10.25;;;;;12.34;69.84;100958.03;5060652;28;46458;-56
2022/12/24 05:41:40;;;;;;;;;8.75;6.00;;;;;12.35;70.02;100959.75;5060560;28;45442;-57
2022/12/24 05:44:05;;;;;;;;;12.75;9.25;;;;;12.36;70.06;100952.72;5060814;28;45554;-56
2022/12/24 05:46:31;;;;;;;;;14.25;7.00;;;;;12.39;69.99;100951.78;5060642;27;45314;-57
2022/12/24 05:48:56;;;;;;;;;12.75;7.00;;;;;12.39;69.62;100959.69;5060555;27;45512;-56
2022/12/24 05:51:22;;;;;;;;;12.00;6.25;;;;;12.39;70.09;100946.53;5076083;28;45264;-57
2022/12/24 05:53:49;;;;;;;;;12.00;8.00;;;;;12.34;69.99;100950.13;5059263;28;45403;-56
2022/12/24 05:56:20;;;;;;;;;13.25;8.50;;;;;12.39;70.28;100947.41;5060572;28;45515;-56
2022/12/24 05:58:46;;;;;;;;;3.50;2.00;;;;;12.40;70.48;100943.88;5060661;28;46431;-56
2022/12/24 06:01:12;;;;;;;;;7.00;5.25;;;;;12.36;70.17;100939.53;5060265;28;45349;-56
2022/12/24 06:03:38;;;;;;;;;8.75;5.00;;;;;12.33;70.29;100937.84;5060609;28;45319;-56
2022/12/24 06:06:12;;;;;;;;;8.00;6.00;;;;;12.33;70.16;100937.84;5058964;28;45537;-56
2022/12/24 06:08:39;;;;;;;;;11.25;6.25;;;;;12.39;70.18;100938.63;5060371;28;45539;-56
2022/12/24 06:11:08;;;;;;;;;8.75;5.75;;;;;12.40;70.22;100933.34;5060099;28;45434;-56
2022/12/24 06:13:34;;;;;;;;;11.50;6.50;;;;;12.43;70.17;100933.25;5060493;28;45319;-56
2022/12/24 06:16:01;;;;;;;;;6.50;6.25;;;;;12.35;70.17;100938.69;5060190;28;45196;-57
2022/12/24 06:18:31;;;;;;;;;6.50;5.00;;;;;12.35;70.12;100957.13;5060328;28;46141;-58
2022/12/24 06:20:58;;;;;;;;;13.25;6.25;;;;;12.32;70.35;100957.16;5059972;28;45187;-58
2022/12/24 06:23:24;;;;;;;;;10.75;5.25;;;;;12.34;70.15;100960.66;5060084;28;45225;-56
2022/12/24 06:25:50;;;;;;;;;10.00;5.00;;;;;12.38;70.36;100958.84;5059814;28;45574;-56
2022/12/24 06:28:16;;;;;;;;;5.00;5.00;;;;;12.40;69.98;100959.69;5060082;28;46400;-55
2022/12/24 06:30:45;;;;;;;;;8.00;5.50;;;;;12.42;70.29;100962.28;5060058;28;45499;-55
2022/12/24 06:33:11;;;;;;;;;13.00;6.00;;;;;12.39;69.77;100957.94;5060431;28;45171;-55
2022/12/24 06:35:36;;;;;;;;;6.25;5.25;;;;;12.36;70.17;100936.91;5059896;28;45228;-56
2022/12/24 06:38:02;;;;;;;;;8.75;8.25;;;;;12.34;70.24;100941.34;5059959;28;45296;-56
2022/12/24 06:40:27;;;;;;;;;9.00;6.00;;;;;12.35;69.89;100935.16;5075640;27;45285;-54
2022/12/24 06:42:52;;;;;;;;;11.75;7.75;;;;;12.29;69.99;100936.16;5059940;28;45458;-55
2022/12/24 06:45:18;;;;;;;;;7.00;5.00;;;;;12.31;70.12;100929.09;5059889;28;45208;-55
2022/12/24 06:47:43;;;;;;;;;4.00;4.00;;;;;12.32;69.76;100933.44;5060007;28;46485;-56
2022/12/24 06:50:09;;;;;;;;;10.25;4.75;;;;;12.27;70.04;100937.09;5059774;28;45299;-55
2022/12/24 06:52:34;;;;;;;;;9.75;5.50;;;;;12.26;69.97;100936.19;5059604;28;45439;-55
2022/12/24 06:54:59;;;;;;;;;5.00;4.00;;;;;12.26;70.04;100938.84;5059699;28;45321;-55
2022/12/24 06:57:25;;;;;;;;;6.00;5.25;;;;;12.26;69.77;100940.59;5059799;28;45418;-55
2022/12/24 06:59:51;;;;;;;;;7.75;5.25;;;;;12.24;70.04;100942.38;5059646;28;45314;-54
2022/12/24 07:02:16;;;;;;;;;4.75;3.00;;;;;12.22;70.21;100949.47;5059933;28;45402;-55
2022/12/24 07:04:41;;;;;;;;;4.25;2.75;;;;;12.15;70.15;100946.06;5059625;28;45277;-55
2022/12/24 07:07:06;;;;;;;;;5.00;4.50;;;;;12.21;69.89;100950.38;5059645;28;45354;-55
2022/12/24 07:09:32;;;;;;;;;5.25;4.50;;;;;12.19;69.59;100960.94;5059624;28;45315;-57
2022/12/24 07:11:57;;;;;;;;;8.75;3.00;;;;;12.14;69.74;100946.97;5059676;28;45335;-55
2022/12/24 07:14:23;;;;;;;;;6.00;3.00;;;;;12.17;69.74;100953.03;5060468;28;45431;-55
2022/12/24 07:16:48;;;;;;;;;1.50;1.50;;;;;12.12;69.69;100961.94;5063217;28;45386;-55
2022/12/24 07:19:14;;;;;;;;;5.75;3.75;;;;;12.11;69.59;100958.44;5063045;28;45270;-54
2022/12/24 07:21:40;;;;;;;;;4.75;3.00;;;;;12.14;69.89;100973.31;5063058;28;45429;-57
2022/12/24 07:24:05;;;;;;;;;5.75;3.75;;;;;12.10;69.78;100967.22;5062890;28;45157;-56
2022/12/24 07:26:31;;;;;;;;;4.00;3.00;;;;;12.15;69.47;100978.56;5062817;28;45295;-58
2022/12/24 07:28:57;;;;;;;;;5.50;4.25;;;;;12.14;69.57;100973.31;5062954;28;45232;-57
2022/12/24 07:31:22;;;;;;;;;8.25;2.50;;;;;12.12;69.49;100965.41;5063186;28;45613;-58
2022/12/24 07:33:47;;;;;;;;;5.00;3.00;;;;;12.11;69.34;100968.09;5062938;28;45439;-57
2022/12/24 07:36:22;;;;;;;;;4.00;2.75;;;;;12.09;69.35;100976.03;5062803;28;46131;-58
2022/12/24 07:38:48;;;;;;;;;4.75;3.00;;;;;12.07;69.79;100961.13;5062590;28;45481;-57
2022/12/24 07:41:14;;;;;;;;;4.75;4.00;;;;;12.08;69.47;100976.06;5062567;28;45231;-55
2022/12/24 07:43:39;;;;;;;;;5.00;3.00;;;;;12.04;69.39;100975.25;5062678;28;45231;-57
2022/12/24 07:46:05;;;;;;;;;4.75;4.00;;;;;11.99;69.32;100980.56;5062575;28;45290;-57
2022/12/24 07:48:31;;;;;;;;;3.75;2.50;;;;;12.05;69.38;100981.34;5078439;27;45506;-58
2022/12/24 07:50:58;;;;;;;;;9.00;4.50;;;;;12.03;69.50;100987.50;5078305;28;45280;-55
2022/12/24 07:53:24;;;;;;;;;4.50;4.25;;;;;12.03;69.41;100989.28;5061885;28;45330;-56
2022/12/24 07:55:50;;;;;;;;;4.50;3.75;;;;;12.00;69.34;100976.19;5062531;28;45931;-56
2022/12/24 07:58:15;;;;;;;;;3.75;2.00;;;;;11.99;69.43;100982.34;5062262;28;45239;-55
2022/12/24 08:00:41;;;;;;;;;2.25;2.25;;;;;11.93;69.37;100980.63;5062764;28;45187;-55
2022/12/24 08:03:06;;;;;;;;;6.25;3.50;;;;;11.96;69.65;100980.63;5062116;28;45516;-55
2022/12/24 08:05:35;;;;;;;;;9.00;5.00;;;;;11.97;69.40;100987.63;5062248;27;45263;-55
2022/12/24 08:08:00;;;;;;;;;9.00;5.50;;;;;11.98;69.32;100992.00;5061916;28;45330;-57
2022/12/24 08:10:26;;;;;;;;;5.00;2.75;;;;;11.93;69.35;100991.16;5062381;28;45310;-57
2022/12/24 08:12:51;;;;;;;;;8.25;4.75;;;;;11.94;69.33;100995.53;5062032;28;45502;-58
2022/12/24 08:15:16;;;;;;;;;4.00;2.50;;;;;11.96;69.26;100991.16;5062117;28;46119;-57
2022/12/24 08:17:43;;;;;;;;;2.50;2.00;;;;;11.97;69.41;100995.50;5062265;28;45364;-55
2022/12/24 08:20:09;;;;;;;;;2.50;1.75;;;;;11.98;69.43;100999.91;5062399;28;45304;-55
2022/12/24 08:22:34;;;;;;;;;4.25;2.75;;;;;11.95;69.47;101007.81;5061593;28;45412;-54
2022/12/24 08:24:59;;;;;;;;;3.50;2.00;;;;;11.89;69.73;101004.44;5061833;28;46311;-54
2022/12/24 08:27:25;;;;;;;;;3.25;2.00;;;;;11.92;69.48;101014.91;5065168;27;45260;-54
2022/12/24 08:29:50;;;;;;;;;5.25;3.25;;;;;11.90;69.39;101007.03;5062192;28;45232;-58
2022/12/24 08:32:15;;;;;;;;;4.50;3.25;;;;;11.94;69.58;101018.38;5061866;28;45238;-57
2022/12/24 08:34:41;;;;;;;;;6.00;3.50;;;;;11.98;69.42;101017.47;5061810;28;45529;-58
2022/12/24 08:37:06;;;;;;;;;8.75;5.50;;;;;11.93;69.51;101027.19;5061563;28;45253;-57
2022/12/24 08:39:31;;;;;;;;;5.75;4.00;;;;;11.93;69.56;101041.19;5077799;28;45489;-57
2022/12/24 08:41:57;;;;;;;;;6.50;3.00;;;;;11.97;69.41;101044.69;5061568;28;45450;-57
2022/12/24 08:44:22;;;;;;;;;2.00;2.00;;;;;11.88;69.44;101035.13;5061870;28;46033;-57
2022/12/24 08:46:47;;;;;;;;;3.25;3.00;;;;;11.96;69.45;101037.69;5061546;28;45248;-55
2022/12/24 08:49:13;;;;;;;;;4.75;1.75;;;;;12.02;69.21;101054.28;5062031;28;45271;-57
2022/12/24 08:51:38;;;;;;;;;2.75;2.00;;;;;12.02;69.34;101049.03;5061013;28;45619;-56
2022/12/24 08:54:04;;;;;;;;;2.00;1.00;;;;;11.97;69.49;101052.59;5061469;28;46061;-55
2022/12/24 08:56:29;;;;;;;;;4.00;2.00;;;;;11.99;69.60;101059.59;5061339;28;45463;-55
2022/12/24 08:58:54;;;;;;;;;6.00;3.75;;;;;12.04;69.42;101062.16;5061821;28;45415;-57
2022/12/24 09:01:20;;;;;;;;;4.50;3.00;;;;;12.07;69.53;101072.63;5061201;28;45533;-57
2022/12/24 09:03:46;;;;;;;;;2.75;2.75;;;;;12.06;69.50;101070.88;5061427;28;46051;-58
2022/12/24 09:06:13;;;;;;;;;3.50;2.25;;;;;12.10;69.33;101087.53;5061224;28;45343;-57
2022/12/24 09:08:39;;;;;;;;;3.50;2.00;;;;;12.05;69.52;101086.72;5061417;28;45376;-54
2022/12/24 09:11:07;;;;;;;;;6.25;4.75;;;;;12.14;69.48;101094.50;5060915;28;45383;-57
2022/12/24 09:13:32;;;;;;;;;4.00;3.00;;;;;12.13;69.49;101092.75;5061362;28;46289;-58
2022/12/24 09:15:57;;;;;;;;;2.00;2.00;;;;;12.07;69.57;101088.44;5076778;28;45308;-57
2022/12/24 09:18:24;;;;;;;;;1.75;1.00;;;;;12.12;69.19;101093.66;5061431;28;45199;-57
2022/12/24 09:20:49;;;;;;;;;4.50;3.25;;;;;12.10;69.16;101098.94;5061132;28;45413;-55
2022/12/24 09:23:15;;;;;;;;;3.25;2.00;;;;;12.11;69.19;101092.78;5076320;28;48252;-55
2022/12/24 09:25:41;;;;;;;;;1.00;1.00;;;;;12.16;69.50;101097.97;5060827;28;45338;-55
2022/12/24 09:28:07;;;;;;;;;1.00;1.00;;;;;12.19;69.50;101096.16;5061065;28;45354;-55
2022/12/24 09:30:32;;;;;;;;;2.25;2.25;;;;;12.19;69.60;101109.34;5060718;28;45416;-56
2022/12/24 09:32:57;;;;;;;;;4.50;3.50;;;;;12.28;69.30;101110.09;5060972;28;45279;-56
2022/12/24 09:35:22;;;;;;;;;7.75;3.00;;;;;12.21;69.46;101113.72;5060731;28;45292;-55
2022/12/24 09:38:01;;;;;;;;;6.50;3.25;;;;;12.28;69.22;101121.50;5060382;28;45370;-57
2022/12/24 09:40:36;;;;;;;;;14.00;10.25;;;;;12.34;69.37;101120.56;5060678;28;45464;-55
2022/12/24 09:43:07;;;;;;;;;4.75;3.00;;;;;12.33;69.39;101117.03;5060412;28;46140;-56
2022/12/24 09:45:38;;;;;;;;;6.25;5.00;;;;;12.37;69.45;101117.00;5060534;28;45364;-56
2022/12/24 09:48:22;;;;;;;;;5.00;2.00;;;;;12.42;69.40;101134.47;5060691;28;45177;-54
2022/12/24 09:51:08;;;;;;;;;6.00;2.50;;;;;12.46;69.41;101111.56;5060768;28;45310;-57
2022/12/24 09:53:55;;;;;;;;;2.25;2.00;;;;;12.40;69.62;101109.03;5059985;28;45669;-56
2022/12/24 09:56:32;;;;;;;;;8.00;6.50;;;;;12.48;69.18;101109.78;5060309;28;45354;-56
2022/12/24 09:59:03;;;;;;;;;8.75;5.25;;;;;12.49;69.15;101106.22;5060573;28;45318;-56
2022/12/24 10:01:32;;;;;;;;;3.25;2.00;;;;;12.53;69.20;101107.94;5060197;28;45453;-55
2022/12/24 10:04:02;;;;;;;;;5.00;4.00;;;;;12.54;69.14;101114.97;5060335;28;46202;-55
2022/12/24 10:06:39;;;;;;;;;2.75;2.50;;;;;12.54;69.49;101104.41;5060174;28;45231;-56
2022/12/24 10:09:25;;;;;;;;;4.75;4.00;;;;;12.60;69.44;101116.63;5076067;27;45369;-56
2022/12/24 10:12:08;;;;;;;;;9.50;7.00;;;;;12.64;69.45;101115.66;5060452;28;45398;-55
2022/12/24 10:14:55;;;;;;;;;4.50;4.00;;;;;12.63;69.25;101114.81;5060123;28;46337;-56
2022/12/24 10:17:26;;;;;;;;;4.25;4.25;;;;;12.65;69.45;101113.03;5060070;28;45289;-56
2022/12/24 10:20:18;;;;;;;;;8.00;4.00;;;;;12.66;69.29;101119.16;5076015;28;45277;-56
2022/12/24 10:23:07;;;;;;;;;7.00;4.25;;;;;12.67;69.38;101116.47;5059862;28;45516;-56
2022/12/24 10:25:42;;;;;;;;;3.25;3.00;;;;;12.63;69.54;101125.34;5059256;28;45457;-57
2022/12/24 10:28:27;;;;;;;;;6.50;3.00;;;;;12.70;69.50;101122.59;5056273;28;45222;-55
2022/12/24 10:31:00;;;;;;;;;8.00;4.00;;;;;12.70;68.86;101114.69;5060147;28;45280;-56
2022/12/24 10:33:37;;;;;;;;;3.75;3.00;;;;;12.65;69.45;101105.09;5060106;28;45360;-56
2022/12/24 10:36:04;;;;;;;;;4.00;3.75;;;;;12.64;69.67;101106.00;5059845;28;46177;-56
2022/12/24 10:38:31;;;;;;;;;2.00;2.00;;;;;12.56;69.65;101104.38;5059699;28;45226;-57
2022/12/24 10:40:59;;;;;;;;;1.75;1.75;;;;;12.66;69.38;101105.97;5059487;28;45343;-56
2022/12/24 10:43:28;;;;;;;;;6.50;4.00;;;;;12.61;69.71;101108.66;5059638;28;45448;-56
2022/12/24 10:46:12;;;;;;;;;8.00;4.50;;;;;12.70;69.51;101107.66;5060001;28;45517;-57
2022/12/24 10:48:41;;;;;;;;;5.75;4.50;;;;;12.74;69.35;101092.66;5059838;28;45286;-56
2022/12/24 10:51:31;;;;;;;;;5.00;2.50;;;;;12.76;69.45;101099.63;5063384;28;46502;-55
2022/12/24 10:54:26;;;;;;;;;3.00;3.00;;;;;12.77;69.10;101105.78;5063639;28;45355;-56
2022/12/24 10:56:57;;;;;;;;;4.75;2.75;;;;;12.83;69.19;101109.19;5059947;28;46645;-57
2022/12/24 10:59:48;;;;;;;;;3.25;3.00;;;;;12.80;69.33;101097.81;5063348;28;45369;-57
2022/12/24 11:02:43;;;;;;;;;5.75;4.25;;;;;12.82;69.58;101102.16;5063495;28;45238;-56
2022/12/24 11:05:38;;;;;;;;;5.50;3.25;;;;;12.88;69.60;101100.31;5039954;28;45512;-56
2022/12/24 11:08:12;;;;;;;;;6.00;2.00;;;;;12.86;69.29;101094.22;5062813;28;45353;-56
2022/12/24 11:10:52;;;;;;;;;5.75;4.00;;;;;12.83;69.03;101087.22;5063127;28;45315;-56
2022/12/24 11:13:51;;;;;;;;;5.25;4.00;;;;;12.92;69.22;101089.69;5063281;28;45336;-56
2022/12/24 11:16:22;;;;;;;;;6.00;2.75;;;;;12.94;69.41;101087.91;5060025;28;45324;-56
2022/12/24 11:18:50;;;;;;;;;4.50;1.25;;;;;12.95;69.13;101088.75;5062986;28;46199;-56
2022/12/24 11:21:28;;;;;;;;;3.50;3.50;;;;;12.93;69.23;101083.50;5062705;28;45358;-56
2022/12/24 11:23:59;;;;;;;;;6.00;4.50;;;;;12.99;69.41;101100.97;5063134;28;45295;-56
2022/12/24 11:26:28;;;;;;;;;3.25;3.00;;;;;13.04;69.02;101093.84;5050360;28;45300;-55
2022/12/24 11:29:19;;;;;;;;;3.50;3.25;;;;;13.07;69.30;101082.38;5062728;28;46259;-56
2022/12/24 11:31:46;;;;;;;;;5.75;2.75;;;;;13.04;69.08;101082.44;5055667;28;45430;-56
2022/12/24 11:34:31;;;;;;;;;5.00;3.00;;;;;13.08;69.06;101074.44;5062925;28;45276;-56
2022/12/24 11:37:16;;;;;;;;;4.25;4.25;;;;;13.10;69.58;101087.59;5062537;28;45468;-56
2022/12/24 11:39:54;;;;;;;;;7.25;3.75;;;;;13.13;69.19;101085.78;5062755;28;45337;-56